Time;durP1;ratioP1;P1;durP2;ratioP2;P2;SDS_P1;SDS_P2;PMS_P1;PMS_P2;Temp;Humidity;BMP_temperature;BMP_pressure;BME280_temperature;BME280_humidity;BME280_pressure;Samples;Min_cycle;Max_cycle;Signal;HPM_P1;HPM_P2
2022/12/08 00:11:07;;;;;;;7.67;4.20;;;;;;;2.06;100.00;98536.70;4252527;80;21008;-89
2022/12/08 00:17:11;;;;;;;7.95;4.37;;;;;;;2.07;100.00;98540.20;4250392;82;20994;-89
2022/12/08 00:23:12;;;;;;;7.25;3.95;;;;;;;2.10;100.00;98542.23;4255834;82;20994;-90
2022/12/08 00:29:14;;;;;;;10.38;4.50;;;;;;;2.10;100.00;98542.23;4248892;82;21090;-91
2022/12/08 00:35:15;;;;;;;8.13;4.22;;;;;;;2.11;100.00;98542.45;4249941;82;21123;-90
2022/12/08 00:47:42;;;;;;;7.58;4.80;;;;;;;2.07;100.00;98550.41;4246660;82;21004;-90
2022/12/08 00:53:43;;;;;;;11.85;5.20;;;;;;;2.05;100.00;98552.64;4250842;82;20995;-91
2022/12/08 00:59:45;;;;;;;8.23;4.62;;;;;;;2.06;100.00;98544.00;4249011;82;21060;-89
2022/12/08 01:05:46;;;;;;;8.15;3.90;;;;;;;2.03;100.00;98558.95;4244995;82;21016;-90
2022/12/08 01:11:48;;;;;;;7.33;4.20;;;;;;;2.00;100.00;98566.91;4362893;80;21544;-89
2022/12/08 01:17:49;;;;;;;7.60;4.60;;;;;;;2.00;100.00;98565.56;4369608;80;20979;-89
2022/12/08 01:23:50;;;;;;;7.58;4.22;;;;;;;1.98;100.00;98571.84;4366915;80;21055;-90
2022/12/08 01:29:52;;;;;;;7.83;4.40;;;;;;;1.97;100.00;98574.32;4373457;80;21036;-90
2022/12/08 01:35:55;;;;;;;9.85;4.50;;;;;;;1.89;100.00;98568.42;4374149;80;21817;-89
2022/12/08 01:41:56;;;;;;;8.10;3.98;;;;;;;1.81;100.00;98559.27;4375345;80;21019;-90
2022/12/08 01:48:08;;;;;;;9.50;3.90;;;;;;;1.71;100.00;98570.44;4379103;80;20981;-90
2022/12/08 01:54:12;;;;;;;8.30;3.50;;;;;;;1.57;100.00;98558.55;4376445;79;21059;-90
2022/12/08 02:00:18;;;;;;;7.92;4.17;;;;;;;1.45;100.00;98565.76;4368756;80;21918;-89
2022/12/08 02:06:19;;;;;;;8.08;4.40;;;;;;;1.31;100.00;98567.34;4368901;80;21090;-89
2022/12/08 02:27:52;;;;;;;5.62;3.87;;;;;;;1.04;100.00;98574.50;4193465;82;21606;-89
2022/12/08 02:40:46;;;;;;;7.62;4.22;;;;;;;1.11;100.00;98570.73;4358472;80;21001;-89
2022/12/08 02:47:12;;;;;;;7.10;3.77;;;;;;;1.16;100.00;98571.14;4337267;80;20976;-89
2022/12/08 03:14:51;;;;;;;8.95;5.12;;;;;;;1.13;100.00;98567.72;4329824;80;21018;-86
2022/12/08 03:20:52;;;;;;;12.17;5.97;;;;;;;1.21;100.00;98564.20;4339384;80;21469;-87
2022/12/08 03:27:06;;;;;;;8.28;5.03;;;;;;;1.32;100.00;98568.91;4345285;80;21085;-86
2022/12/08 03:33:25;;;;;;;8.63;4.90;;;;;;;1.39;100.00;98564.36;4326078;80;20988;-87
2022/12/08 03:46:34;;;;;;;7.87;5.28;;;;;;;1.38;100.00;98562.77;4343587;80;21329;-87
2022/12/08 03:59:42;;;;;;;9.38;4.62;;;;;;;1.43;100.00;98557.19;4344699;80;21036;-86
2022/12/08 04:13:06;;;;;;;6.15;4.67;;;;;;;1.47;100.00;98558.14;4370721;80;21039;-87
2022/12/08 04:19:08;;;;;;;7.65;4.85;;;;;;;1.49;100.00;98559.38;4356026;80;21008;-89
2022/12/08 04:32:21;;;;;;;7.78;4.53;;;;;;;1.40;100.00;98558.64;4359735;80;21083;-88
2022/12/08 04:51:35;;;;;;;8.83;4.62;;;;;;;1.23;100.00;98557.38;4006147;85;58118;-89
2022/12/08 04:57:36;;;;;;;8.65;4.53;;;;;;;1.17;100.00;98550.59;4191338;83;21068;-88
2022/12/08 05:10:38;;;;;;;6.67;4.35;;;;;;;1.07;100.00;98552.30;4115493;85;22053;-88
2022/12/08 05:16:39;;;;;;;7.95;4.67;;;;;;;1.09;100.00;98550.63;4055571;85;21091;-89
2022/12/08 05:22:40;;;;;;;8.68;5.17;;;;;;;1.09;100.00;98542.53;4134923;84;21030;-88
2022/12/08 05:28:42;;;;;;;8.38;5.22;;;;;;;1.12;100.00;98541.88;4130473;84;21026;-88
2022/12/08 05:41:49;;;;;;;9.83;5.47;;;;;;;1.14;100.00;98542.36;4227964;83;21011;-88
2022/12/08 05:47:52;;;;;;;6.40;4.28;;;;;;;1.20;100.00;98540.51;4224553;83;21023;-90
2022/12/08 05:53:55;;;;;;;11.45;6.17;;;;;;;1.24;100.00;98537.94;4223045;83;21082;-88
2022/12/08 05:59:58;;;;;;;8.05;5.37;;;;;;;1.23;100.00;98559.28;4214921;83;21039;-91
2022/12/08 06:05:59;;;;;;;9.23;5.15;;;;;;;1.20;100.00;98570.16;4198433;83;20987;-88
2022/12/08 06:12:01;;;;;;;9.38;5.75;;;;;;;1.14;100.00;98566.63;4234306;82;21538;-88
2022/12/08 06:18:04;;;;;;;10.72;5.05;;;;;;;1.13;100.00;98568.52;4266870;82;21041;-88
2022/12/08 06:24:37;;;;;;;9.55;5.72;;;;;;;1.13;100.00;98577.95;4269337;82;21008;-88
2022/12/08 06:30:50;;;;;;;9.63;5.22;;;;;;;1.18;100.00;98577.78;4246125;84;21011;-88
2022/12/08 06:44:06;;;;;;;11.35;5.75;;;;;;;1.23;100.00;98587.59;4246473;81;21943;-89
2022/12/08 06:50:23;;;;;;;48.23;17.23;;;;;;;1.26;100.00;98609.86;4231141;82;21045;-89
2022/12/08 06:56:31;;;;;;;50.60;17.75;;;;;;;1.30;100.00;98596.75;4251864;82;21009;-88
2022/12/08 07:09:56;;;;;;;44.53;12.75;;;;;;;1.42;100.00;98600.13;4255200;82;21003;-88
2022/12/08 07:16:22;;;;;;;36.13;12.15;;;;;;;1.49;100.00;98609.28;4263840;82;21031;-88
2022/12/08 07:56:33;;;;;;;24.82;12.10;;;;;;;1.73;100.00;98619.48;4214903;83;21003;-88
2022/12/08 08:02:38;;;;;;;18.15;9.88;;;;;;;1.89;100.00;98623.75;4214915;83;20996;-88
2022/12/08 08:08:39;;;;;;;16.93;11.45;;;;;;;2.07;100.00;98625.23;4225136;83;20971;-88
2022/12/08 08:14:41;;;;;;;15.28;10.60;;;;;;;2.24;100.00;98615.66;4218437;83;21059;-89
2022/12/08 08:20:43;;;;;;;16.50;11.93;;;;;;;2.41;100.00;98622.28;4239569;82;21484;-89
2022/12/08 08:26:44;;;;;;;12.95;7.85;;;;;;;2.59;100.00;98617.75;4254058;82;21003;-89
2022/12/08 08:39:50;;;;;;;12.03;6.35;;;;;;;2.99;100.00;98607.19;4245399;82;21106;-90
2022/12/08 08:45:52;;;;;;;9.28;5.80;;;;;;;3.21;100.00;98608.91;4244920;82;21134;-89
2022/12/08 08:51:53;;;;;;;9.13;5.40;;;;;;;3.46;100.00;98617.06;4242874;82;21079;-89
2022/12/08 08:57:55;;;;;;;16.20;6.50;;;;;;;3.61;100.00;98608.27;4232538;82;20935;-89
2022/12/08 09:03:56;;;;;;;12.78;5.80;;;;;;;3.74;100.00;98614.72;4235239;82;21460;-89
2022/12/08 09:10:00;;;;;;;9.98;5.87;;;;;;;3.82;100.00;98611.66;4236308;82;21562;-92
2022/12/08 09:16:04;;;;;;;12.45;5.85;;;;;;;3.83;99.78;98611.88;4147181;83;21004;-89
2022/12/08 09:22:06;;;;;;;8.45;5.22;;;;;;;3.91;99.57;98601.48;4294530;81;21056;-89
2022/12/08 09:28:07;;;;;;;11.20;5.90;;;;;;;3.88;98.76;98594.05;4294087;81;21035;-90
2022/12/08 09:34:11;;;;;;;10.48;6.08;;;;;;;4.00;99.11;98585.34;4308789;81;20990;-89
2022/12/08 09:40:17;;;;;;;10.80;6.08;;;;;;;4.07;98.12;98580.70;4311015;81;20973;-89
2022/12/08 09:46:20;;;;;;;10.65;5.30;;;;;;;4.10;98.16;98578.08;4262434;82;22020;-89
2022/12/08 09:52:41;;;;;;;13.13;6.25;;;;;;;4.12;98.55;98568.28;4263521;82;20999;-89
2022/12/08 09:59:22;;;;;;;12.88;5.90;;;;;;;4.16;98.04;98563.75;4230690;82;21004;-91
2022/12/08 10:05:25;;;;;;;12.58;5.72;;;;;;;4.21;97.77;98564.87;4256523;82;21006;-90
2022/12/08 10:11:49;;;;;;;10.93;5.40;;;;;;;4.16;97.24;98557.77;4256940;82;21092;-91
2022/12/08 10:17:52;;;;;;;10.98;5.20;;;;;;;4.11;96.71;98552.59;4268091;82;21344;-89
2022/12/08 10:31:02;;;;;;;7.50;3.83;;;;;;;3.99;95.75;98553.19;4081994;86;21050;-90
2022/12/08 10:37:09;;;;;;;10.05;5.22;;;;;;;3.99;95.62;98551.27;4147302;83;21011;-89
2022/12/08 10:43:21;;;;;;;;;;;;;;;3.99;95.37;98549.12;4147440;84;21543;-90
2022/12/08 10:49:32;;;;;;;9.30;5.37;;;;;;;3.98;95.06;98542.91;4081144;86;20123;-89
2022/12/08 10:55:59;;;;;;;11.85;6.12;;;;;;;4.00;94.79;98542.01;4186000;83;21105;-90
2022/12/08 11:02:00;;;;;;;;;;;;;;;3.95;94.75;98536.02;4139748;84;21077;-90
2022/12/08 11:08:03;;;;;;;11.68;6.83;;;;;;;3.87;94.38;98528.27;4129544;84;20470;-89
2022/12/08 11:14:07;;;;;;;10.98;6.83;;;;;;;3.83;94.47;98520.61;4125781;84;21053;-90
2022/12/08 11:20:20;;;;;;;12.18;7.00;;;;;;;3.86;94.61;98523.19;4194073;82;21709;-89
2022/12/08 11:26:32;;;;;;;11.57;6.83;;;;;;;3.89;94.38;98513.83;4176454;83;21025;-89
2022/12/08 11:32:34;;;;;;;12.58;6.40;;;;;;;3.95;94.54;98515.72;4179855;84;21093;-90
2022/12/08 11:38:43;;;;;;;11.68;7.03;;;;;;;3.97;94.58;98512.11;4182827;84;21037;-89
2022/12/08 11:45:01;;;;;;;11.57;7.40;;;;;;;3.98;94.60;98515.02;4179407;83;21029;-89
2022/12/08 11:51:31;;;;;;;17.10;8.60;;;;;;;3.96;94.30;98524.08;4177189;84;21007;-90
2022/12/08 11:57:32;;;;;;;16.65;8.45;;;;;;;3.95;94.14;98519.22;4186783;83;21001;-89
2022/12/08 12:03:39;;;;;;;18.05;8.38;;;;;;;4.00;94.02;98512.77;4178099;83;21037;-90
2022/12/08 12:10:13;;;;;;;18.57;9.28;;;;;;;4.05;93.89;98512.53;4182270;83;20974;-89
2022/12/08 12:16:31;;;;;;;13.90;8.40;;;;;;;4.07;93.89;98505.63;4184385;83;20993;-89
2022/12/08 12:22:36;;;;;;;17.12;9.25;;;;;;;4.06;93.90;98507.33;4157843;83;22303;-91
2022/12/08 12:28:45;;;;;;;16.62;8.95;;;;;;;4.05;93.99;98510.62;4209031;82;21033;-90
2022/12/08 12:34:56;;;;;;;16.62;9.58;;;;;;;4.02;94.29;98509.16;4205886;83;21022;-89
2022/12/08 12:41:02;;;;;;;16.25;9.93;;;;;;;3.96;94.35;98505.13;4202227;83;21065;-89
2022/12/08 12:47:09;;;;;;;20.30;12.40;;;;;;;3.91;94.30;98501.30;4203170;83;21055;-88
2022/12/08 12:53:23;;;;;;;18.87;10.58;;;;;;;3.88;94.68;98487.09;4205507;83;21886;-89
2022/12/08 12:59:55;;;;;;;19.07;10.48;;;;;;;3.79;95.30;98486.45;4201516;83;21484;-89
2022/12/08 13:05:58;;;;;;;20.12;10.78;;;;;;;3.70;95.98;98483.06;4186266;83;21498;-89
2022/12/08 13:12:08;;;;;;;40.52;22.48;;;;;;;3.66;96.60;98480.27;4206776;83;20981;-89
2022/12/08 13:18:27;;;;;;;26.90;15.85;;;;;;;3.59;96.85;98480.59;4201334;83;21021;-89
2022/12/08 13:24:34;;;;;;;27.70;15.55;;;;;;;3.57;96.88;98472.82;4243864;82;20993;-89
2022/12/08 13:30:46;;;;;;;31.05;16.85;;;;;;;3.59;96.72;98479.25;4239827;82;21017;-90
2022/12/08 13:37:15;;;;;;;24.20;13.58;;;;;;;3.56;96.64;98477.22;4241630;82;21006;-89
2022/12/08 13:43:30;;;;;;;25.65;15.10;;;;;;;3.54;96.87;98469.45;4235263;82;21903;-89
2022/12/08 13:49:44;;;;;;;24.55;14.00;;;;;;;3.51;96.65;98462.60;4237035;82;21057;-89
2022/12/08 13:55:49;;;;;;;23.12;14.05;;;;;;;3.53;97.05;98467.09;4174170;82;21033;-88
2022/12/08 14:01:51;;;;;;;24.63;13.35;;;;;;;3.51;97.12;98463.37;4281450;81;21861;-90
2022/12/08 14:07:55;;;;;;;32.65;17.80;;;;;;;3.50;97.41;98468.56;4280586;80;21012;-89
2022/12/08 14:13:56;;;;;;;28.52;17.40;;;;;;;3.43;97.99;98475.10;4268343;82;21555;-89
2022/12/08 14:20:28;;;;;;;34.60;22.30;;;;;;;3.42;98.44;98483.56;4280620;82;20971;-91
2022/12/08 14:26:34;;;;;;;29.45;16.30;;;;;;;3.30;98.51;98482.23;4276384;82;21005;-90
2022/12/08 14:32:45;;;;;;;30.02;17.12;;;;;;;3.17;98.95;98484.15;4285384;82;20974;-89
2022/12/08 14:38:49;;;;;;;378.18;109.85;;;;;;;3.05;99.45;98479.52;4274984;81;20981;-89
2022/12/08 14:45:08;;;;;;;144.60;47.35;;;;;;;2.98;99.93;98469.84;4265432;82;21517;-89
2022/12/08 14:51:28;;;;;;;96.45;35.83;;;;;;;2.95;100.00;98475.13;4284822;82;21038;-89
2022/12/08 14:57:33;;;;;;;82.97;32.53;;;;;;;2.93;100.00;98470.61;4274605;81;21633;-90
2022/12/08 15:03:35;;;;;;;74.50;28.37;;;;;;;2.91;100.00;98475.01;4269076;82;21054;-89
2022/12/08 15:09:41;;;;;;;49.88;24.87;;;;;;;2.91;100.00;98479.64;4272560;82;21036;-89
2022/12/08 15:15:53;;;;;;;33.53;18.03;;;;;;;2.89;100.00;98475.93;4278714;82;21830;-89
2022/12/08 15:21:58;;;;;;;30.02;15.48;;;;;;;2.85;100.00;98475.01;4274286;82;21034;-89
2022/12/08 15:28:01;;;;;;;33.70;15.60;;;;;;;2.78;100.00;98467.23;4273031;82;20958;-89
2022/12/08 15:34:03;;;;;;;28.90;16.67;;;;;;;2.63;100.00;98460.56;4288186;82;20955;-89
2022/12/08 15:40:06;;;;;;;33.98;17.98;;;;;;;2.57;100.00;98454.39;4279443;81;20979;-90
2022/12/08 15:46:08;;;;;;;23.87;14.80;;;;;;;2.59;100.00;98452.11;4282269;82;21398;-89
2022/12/08 15:52:16;;;;;;;74.87;28.45;;;;;;;2.58;100.00;98461.36;4270187;82;21672;-91
2022/12/08 15:58:23;;;;;;;35.38;20.37;;;;;;;2.55;100.00;98451.98;4272080;81;21045;-91
2022/12/08 16:04:24;;;;;;;;;;;;;;;2.40;100.00;98446.44;4281346;82;20978;-89
2022/12/08 16:10:26;;;;;;;50.63;29.07;;;;;;;2.30;100.00;98446.89;4276102;82;20191;-89
2022/12/08 16:16:29;;;;;;;41.05;23.07;;;;;;;2.22;100.00;98439.11;4283476;82;21408;-89
2022/12/08 16:22:31;;;;;;;42.35;22.80;;;;;;;2.15;100.00;98434.00;4275339;82;21080;-89
2022/12/08 16:28:33;;;;;;;87.27;37.20;;;;;;;2.11;100.00;98435.25;4254278;82;21011;-89
2022/12/08 16:34:37;;;;;;;63.00;35.08;;;;;;;1.87;100.00;98439.20;4275569;82;21067;-90
2022/12/08 16:42:38;;;;;;;101.10;46.70;;;;;;;1.78;100.00;98443.89;4279024;81;21046;-89
2022/12/08 16:46:42;;;;;;;70.10;39.05;;;;;;;1.79;100.00;98439.26;4283336;82;21328;-88
2022/12/08 16:52:45;;;;;;;53.15;31.45;;;;;;;1.74;100.00;98441.60;4280702;82;21568;-89
2022/12/08 16:58:47;;;;;;;92.67;49.77;;;;;;;1.62;100.00;98436.16;4267124;82;21004;-90
2022/12/08 17:04:51;;;;;;;59.53;33.85;;;;;;;1.61;100.00;98428.61;4273390;82;20992;-89
2022/12/08 17:11:06;;;;;;;62.60;33.92;;;;;;;1.51;100.00;98421.48;4281546;82;20994;-89
2022/12/08 17:16:56;;;;;;;60.35;32.83;;;;;;;1.39;100.00;98421.42;4276421;82;21020;-90
2022/12/08 17:22:58;;;;;;;76.77;43.52;;;;;;;1.41;100.00;98415.92;4282182;82;21086;-88
2022/12/08 17:29:02;;;;;;;74.05;44.23;;;;;;;1.42;100.00;98431.00;4282703;82;21082;-90
2022/12/08 17:35:05;;;;;;;78.17;43.63;;;;;;;1.34;100.00;98427.02;4277936;82;21055;-89
2022/12/08 17:41:09;;;;;;;72.87;42.17;;;;;;;1.30;100.00;98425.52;4274118;82;21092;-89
2022/12/08 17:47:12;;;;;;;73.50;40.05;;;;;;;1.24;100.00;98422.79;4277988;82;21036;-89
2022/12/08 17:53:14;;;;;;;60.85;36.63;;;;;;;1.21;100.00;98419.41;4277806;82;21032;-88
2022/12/08 17:59:16;;;;;;;63.65;36.95;;;;;;;1.19;100.00;98421.63;4278742;82;21106;-89
2022/12/08 18:05:18;;;;;;;77.67;43.10;;;;;;;1.14;100.00;98415.08;4284622;82;21032;-88
2022/12/08 18:11:20;;;;;;;70.78;39.35;;;;;;;1.15;100.00;98421.27;4278964;82;21082;-89
2022/12/08 18:17:22;;;;;;;103.95;52.95;;;;;;;1.20;100.00;98415.69;4277080;81;20992;-90
2022/12/08 18:23:27;;;;;;;143.17;71.67;;;;;;;1.16;100.00;98408.04;4224750;82;22012;-89
2022/12/08 18:29:28;;;;;;;150.38;81.37;;;;;;;1.24;100.00;98400.42;4226838;83;21041;-88
2022/12/08 18:35:31;;;;;;;142.32;83.42;;;;;;;1.25;100.00;98390.66;4220988;83;21364;-89
2022/12/08 18:41:32;;;;;;;109.20;58.05;;;;;;;1.32;100.00;98388.23;4207150;83;20950;-89
2022/12/08 18:47:37;;;;;;;98.72;52.53;;;;;;;1.36;100.00;98391.84;4216172;83;21072;-89
2022/12/08 18:53:39;;;;;;;101.95;52.50;;;;;;;1.41;100.00;98382.76;4214336;83;21025;-89
2022/12/08 18:59:41;;;;;;;104.72;51.30;;;;;;;1.43;100.00;98378.64;4211244;83;21056;-89
2022/12/08 19:05:42;;;;;;;43.13;21.23;;;;;;;1.48;100.00;98376.30;4212347;83;20981;-90
2022/12/08 19:11:46;;;;;;;36.83;18.80;;;;;;;1.58;100.00;98378.59;4214316;83;21088;-89
2022/12/08 19:17:47;;;;;;;30.62;16.85;;;;;;;1.83;100.00;98376.22;4217250;83;21513;-89
2022/12/08 19:23:57;;;;;;;29.90;16.95;;;;;;;2.05;100.00;98376.39;4104053;82;9999854;-89
2022/12/08 19:29:55;;;;;;;35.60;17.05;;;;;;;2.22;100.00;98370.80;4221203;83;20972;-90
2022/12/08 19:35:57;;;;;;;94.55;47.03;;;;;;;2.23;100.00;98377.77;4214903;83;21009;-89
2022/12/08 19:48:18;;;;;;;124.33;67.35;;;;;;;2.07;100.00;98376.27;4215749;83;21052;-90
2022/12/08 19:54:19;;;;;;;133.78;70.57;;;;;;;1.95;100.00;98370.85;4220354;83;21047;-90
2022/12/08 20:00:22;;;;;;;128.40;69.58;;;;;;;1.83;100.00;98369.48;4219849;83;21020;-91
2022/12/08 20:06:25;;;;;;;130.50;67.85;;;;;;;1.73;100.00;98367.73;4220826;83;21048;-89
2022/12/08 20:12:26;;;;;;;123.22;68.30;;;;;;;1.64;100.00;98361.85;4215294;83;21595;-91
2022/12/08 20:18:28;;;;;;;134.80;66.12;;;;;;;1.58;100.00;98364.53;4214788;83;21074;-90
2022/12/08 20:24:29;;;;;;;132.75;69.55;;;;;;;1.51;100.00;98362.94;4213282;83;21560;-89
2022/12/08 20:30:31;;;;;;;149.85;78.90;;;;;;;1.50;100.00;98364.63;4223699;81;21044;-89
2022/12/08 20:36:32;;;;;;;136.82;71.92;;;;;;;1.51;100.00;98360.24;4220978;83;21071;-89
2022/12/08 20:42:34;;;;;;;139.92;75.95;;;;;;;1.41;100.00;98362.53;4219984;83;21037;-91
2022/12/08 20:48:36;;;;;;;127.20;65.80;;;;;;;1.34;100.00;98355.00;4218531;83;21063;-89
2022/12/08 20:54:38;;;;;;;142.93;77.55;;;;;;;1.28;100.00;98359.57;4215265;83;21028;-89
2022/12/08 21:00:39;;;;;;;142.68;78.67;;;;;;;1.20;100.00;98376.05;4216253;83;20952;-89
2022/12/08 21:06:41;;;;;;;153.72;85.72;;;;;;;1.18;100.00;98368.04;4216657;83;21017;-89
2022/12/08 21:12:42;;;;;;;151.65;78.57;;;;;;;1.21;100.00;98365.48;4216738;83;20993;-88
2022/12/08 21:18:43;;;;;;;149.02;75.42;;;;;;;1.24;100.00;98358.62;4216841;83;22294;-88
2022/12/08 21:24:45;;;;;;;156.50;82.22;;;;;;;1.26;100.00;98363.95;4207596;82;21617;-90
2022/12/08 21:30:47;;;;;;;147.75;78.52;;;;;;;1.26;100.00;98363.95;4210984;83;21513;-88
2022/12/08 21:36:48;;;;;;;124.85;69.92;;;;;;;1.30;100.00;98366.20;4202639;83;22102;-88
2022/12/08 21:42:50;;;;;;;145.38;73.55;;;;;;;1.37;100.00;98366.47;4205447;83;21076;-89
2022/12/08 21:48:52;;;;;;;144.77;73.35;;;;;;;1.39;100.00;98364.80;4208206;83;21033;-90
2022/12/08 21:54:55;;;;;;;185.05;93.47;;;;;;;1.39;100.00;98362.86;4211034;83;21655;-90
2022/12/08 22:00:56;;;;;;;131.85;68.12;;;;;;;1.39;100.00;98360.75;4209500;83;21029;-90
2022/12/08 22:06:57;;;;;;;128.97;65.67;;;;;;;1.40;100.00;98354.22;4210846;83;21056;-90
2022/12/08 22:12:58;;;;;;;135.28;68.05;;;;;;;1.42;100.00;98351.45;4209822;83;21096;-89
2022/12/08 22:19:00;;;;;;;130.55;69.82;;;;;;;1.44;100.00;98347.06;4210276;82;21679;-89
2022/12/08 22:25:04;;;;;;;124.38;63.75;;;;;;;1.42;100.00;98347.40;4213102;83;21867;-89
2022/12/08 22:31:22;;;;;;;110.68;58.55;;;;;;;1.44;100.00;98343.79;4204852;83;20997;-89
2022/12/08 22:37:23;;;;;;;104.10;56.30;;;;;;;1.45;100.00;98342.69;4218029;83;20972;-89
2022/12/08 22:43:27;;;;;;;121.42;62.70;;;;;;;1.49;100.00;98344.14;4222326;83;20985;-90
2022/12/08 22:49:28;;;;;;;119.57;65.05;;;;;;;1.48;100.00;98342.58;4124113;84;21014;-89
2022/12/08 22:55:30;;;;;;;118.25;61.42;;;;;;;1.48;100.00;98336.63;4207695;83;20997;-89
2022/12/08 23:01:32;;;;;;;125.67;67.62;;;;;;;1.48;100.00;98330.44;4206379;83;21019;-89
2022/12/08 23:07:34;;;;;;;124.55;66.37;;;;;;;1.50;100.00;98324.16;4217606;83;20992;-89
2022/12/08 23:13:38;;;;;;;106.50;59.10;;;;;;;1.52;100.00;98317.86;4219299;83;21742;-89
2022/12/08 23:19:39;;;;;;;102.55;56.13;;;;;;;1.55;100.00;98326.08;4220517;83;21004;-90
2022/12/08 23:25:42;;;;;;;125.22;69.22;;;;;;;1.54;100.00;98333.16;4274228;82;20995;-89
2022/12/08 23:31:44;;;;;;;112.77;61.95;;;;;;;1.57;100.00;98327.89;4280915;82;21701;-89
2022/12/08 23:37:45;;;;;;;135.82;75.32;;;;;;;1.52;100.00;98328.64;4290427;82;21732;-89
2022/12/08 23:43:49;;;;;;;147.05;79.82;;;;;;;1.50;100.00;98320.88;4282164;82;21536;-89
2022/12/08 23:49:51;;;;;;;147.68;79.50;;;;;;;1.48;100.00;98319.10;4262795;82;21043;-89
2022/12/08 23:56:02;;;;;;;139.92;75.52;;;;;;;1.50;100.00;98320.12;4286125;80;21100;-90
